Route Details

Aircraft Information
Group: North America Fleet
Types: B738, B752, B762, B763
Route Data
Distance: 2034nm
Duration: 4h 45m
Origin METAR: KSEA 152353Z 27005KT 10SM FEW050 FEW250 28/12 A3001 RMK AO2 SLP167 T02830122 10283 20217 58012
Dest. METAR: KABE 152351Z 16006KT 10SM SCT070 26/11 A2997 RMK AO2 SLP145 T02560106 10300 20256 53012
Freight Data
(for Aug 16, 2022)
Load Factor:
66%
Manifested Cargo: 70,678lbs
Financial History
Total Freight: 67,105lbs
Average Load: 0lbs/flt
Fuel Used: 38,442lbs
Avg. Fuel Used: 0lbs/flt
Fuel Expense: $21,143
Avg. Fuel Expense: $0
Avg. Fuel Cost: $0/lbs
Total Gross Income: $181,855
Pilot Pay: $239
Total Expenses: $34,976
Total Revenue: $123,972
Average Revenue: $0

Capitol Logistics 314




KSEA
Seattle-Tacoma International Airport
Seattle, Washington
KABE
Lehigh Valley International Airport
Allentown, Pennsylvania

Activity Log

Date Flight Route Aircraft Duration
08/02/2022 CPX314 DCT SEA DCT NORMY J90 RWF J34 CRL J190 SLT DCT B762 4h 32m